createdAt,value
2023-05-17T00:04:04.597Z,6.25
2023-05-17T00:09:07.721Z,6.21
2023-05-17T00:14:10.431Z,6.26
2023-05-17T00:19:14.975Z,6.34
2023-05-17T00:24:18.967Z,6.30
2023-05-17T00:29:21.817Z,6.21
2023-05-17T00:34:25.985Z,6.15
2023-05-17T00:39:28.693Z,6.14
2023-05-17T00:44:32.087Z,6.23
2023-05-17T00:49:40.107Z,6.37
2023-05-17T00:54:43.931Z,6.44
2023-05-17T00:59:48.739Z,6.65
2023-05-17T01:04:53.626Z,6.92
2023-05-17T01:09:59.268Z,7.06
2023-05-17T01:15:13.116Z,7.11
2023-05-17T01:20:26.244Z,7.31
2023-05-17T01:25:42.154Z,7.48
2023-05-17T01:30:48.522Z,7.67
2023-05-17T01:35:54.218Z,7.81
2023-05-17T01:41:06.333Z,7.93
2023-05-17T01:46:16.919Z,8.00
2023-05-17T01:51:22.087Z,8.04
2023-05-17T01:56:29.873Z,8.13
2023-05-17T02:01:36.209Z,8.05
2023-05-17T02:06:39.136Z,7.97
2023-05-17T02:11:42.202Z,7.97
2023-05-17T02:16:47.569Z,7.90
2023-05-17T02:21:50.329Z,7.67
2023-05-17T02:26:53.243Z,7.41
2023-05-17T02:31:58.526Z,7.20
2023-05-17T02:37:01.553Z,7.05
2023-05-17T02:42:05.817Z,6.79
2023-05-17T02:47:10.097Z,6.50
2023-05-17T02:52:12.790Z,6.16
2023-05-17T02:57:15.611Z,5.98
2023-05-17T03:02:19.979Z,5.74
2023-05-17T03:07:22.793Z,5.63
2023-05-17T03:12:27.859Z,5.57
2023-05-17T03:17:33.573Z,5.44
2023-05-17T03:22:36.507Z,5.21
2023-05-17T03:27:39.457Z,4.99
2023-05-17T03:32:45.109Z,4.84
2023-05-17T03:37:48.231Z,4.75
2023-05-17T03:42:51.982Z,4.69
2023-05-17T03:48:00.341Z,4.55
2023-05-17T03:53:04.363Z,4.57
2023-05-17T03:58:08.437Z,4.49
2023-05-17T04:03:13.086Z,4.51
2023-05-17T04:08:15.825Z,4.52
2023-05-17T04:13:19.645Z,4.58
2023-05-17T04:18:24.814Z,4.81
2023-05-17T04:23:30.158Z,5.20
2023-05-17T04:28:35.197Z,5.45
2023-05-17T04:33:39.512Z,5.52
2023-05-17T04:38:42.430Z,5.61
2023-05-17T04:43:47.323Z,5.87
2023-05-17T04:48:51.680Z,7.02
2023-05-17T04:53:55.234Z,8.08
2023-05-17T04:58:59.232Z,8.31
2023-05-17T05:04:06.972Z,8.36
2023-05-17T05:09:10.059Z,9.09
2023-05-17T05:14:12.747Z,9.35
2023-05-17T05:19:18.277Z,9.41
2023-05-17T05:24:23.041Z,9.46
2023-05-17T05:29:26.052Z,11.10
2023-05-17T05:34:31.735Z,12.44
2023-05-17T05:39:34.512Z,12.69
2023-05-17T05:44:38.333Z,13.10
2023-05-17T05:49:42.636Z,13.46
2023-05-17T05:54:45.735Z,13.67
2023-05-17T05:59:50.393Z,13.57
2023-05-17T06:04:56.719Z,13.60
2023-05-17T06:10:02.682Z,13.81
2023-05-17T06:15:07.451Z,14.49
2023-05-17T06:20:12.606Z,15.02
2023-05-17T06:25:16.897Z,14.64
2023-05-17T06:30:19.734Z,15.00
2023-05-17T06:35:23.798Z,14.98
2023-05-17T06:40:26.578Z,15.54
2023-05-17T06:45:29.450Z,15.80
2023-05-17T06:50:33.536Z,16.04
2023-05-17T06:55:36.247Z,15.57
2023-05-17T07:00:38.939Z,16.57
2023-05-17T07:05:42.969Z,16.46
2023-05-17T07:10:45.779Z,17.10
2023-05-17T07:15:48.324Z,16.91
2023-05-17T07:20:52.280Z,16.66
2023-05-17T07:25:55.001Z,17.67
2023-05-17T07:30:57.621Z,15.67
2023-05-17T07:36:01.579Z,14.71
2023-05-17T07:41:09.422Z,16.19
2023-05-17T07:46:12.155Z,17.40
2023-05-17T07:51:16.346Z,17.53
2023-05-17T07:56:19.065Z,17.49
2023-05-17T08:01:23.183Z,18.19
2023-05-17T08:06:27.325Z,18.00
2023-05-17T08:11:30.021Z,18.01
2023-05-17T08:16:32.674Z,18.59
2023-05-17T08:21:37.297Z,17.86
2023-05-17T08:26:40.189Z,18.13
2023-05-17T08:31:42.854Z,19.26
2023-05-17T08:36:47.625Z,18.90
2023-05-17T08:41:50.608Z,19.47
2023-05-17T08:46:54.693Z,18.68
2023-05-17T08:52:01.710Z,17.64
2023-05-17T08:57:06.749Z,18.81
2023-05-17T09:02:11.262Z,18.27
2023-05-17T09:07:17.290Z,19.15
2023-05-17T09:12:25.401Z,19.60
2023-05-17T09:17:28.600Z,20.54
2023-05-17T09:22:32.822Z,19.96
2023-05-17T09:27:35.481Z,19.64
2023-05-17T09:32:44.244Z,19.53
2023-05-17T09:37:49.300Z,18.47
2023-05-17T09:42:52.194Z,17.38
2023-05-17T09:47:55.858Z,18.36
2023-05-17T09:53:00.071Z,18.27
2023-05-17T09:58:04.990Z,16.23
2023-05-17T10:03:10.148Z,15.98
2023-05-17T10:08:16.028Z,16.98
2023-05-17T10:13:24.834Z,18.18
2023-05-17T10:18:29.192Z,17.42
2023-05-17T10:23:35.466Z,17.69
2023-05-17T10:28:38.549Z,16.75
2023-05-17T10:33:42.806Z,18.31
2023-05-17T10:38:47.254Z,20.62
2023-05-17T10:43:50.664Z,20.08
2023-05-17T10:48:54.388Z,16.93
2023-05-17T10:54:12.745Z,17.59
2023-05-17T10:59:17.003Z,18.61
2023-05-17T11:04:25.797Z,19.39
2023-05-17T11:09:33.387Z,19.05
2023-05-17T11:14:49.240Z,16.79
2023-05-17T11:20:28.961Z,18.03
2023-05-17T11:25:35.750Z,19.22
2023-05-17T11:30:43.536Z,17.34
2023-05-17T11:35:50.028Z,18.52
2023-05-17T11:40:58.890Z,18.93
2023-05-17T11:46:02.464Z,17.73
2023-05-17T11:51:05.920Z,18.13
2023-05-17T11:56:11.538Z,18.12
2023-05-17T12:01:14.369Z,18.84
2023-05-17T12:06:18.291Z,19.15
2023-05-17T12:11:22.725Z,19.36
2023-05-17T12:16:26.500Z,19.45
2023-05-17T12:21:29.230Z,20.03
2023-05-17T12:26:33.334Z,20.25
2023-05-17T12:31:39.276Z,20.03
2023-05-17T12:36:42.687Z,19.58
2023-05-17T12:41:48.556Z,19.20
2023-05-17T12:46:53.876Z,19.41
2023-05-17T12:51:56.863Z,18.05
2023-05-17T12:57:12.547Z,18.40
2023-05-17T13:02:16.806Z,17.86
2023-05-17T13:07:24.812Z,16.75
2023-05-17T13:12:28.915Z,17.85
2023-05-17T13:17:36.961Z,18.81
2023-05-17T13:22:42.154Z,19.51
2023-05-17T13:27:48.609Z,19.84
2023-05-17T13:32:51.908Z,18.47
2023-05-17T13:37:54.797Z,18.56
2023-05-17T13:42:58.620Z,18.18
2023-05-17T13:48:01.511Z,18.09
2023-05-17T13:53:04.832Z,17.96
2023-05-17T13:58:08.833Z,17.00
2023-05-17T14:03:13.091Z,17.77
2023-05-17T14:08:16.684Z,18.77
2023-05-17T14:13:20.898Z,18.94
2023-05-17T14:18:23.668Z,18.48
2023-05-17T14:23:26.273Z,17.63
2023-05-17T14:28:30.209Z,16.99
2023-05-17T14:33:32.907Z,17.68
2023-05-17T14:38:35.615Z,18.16
2023-05-17T14:43:39.706Z,18.23
2023-05-17T14:48:42.368Z,17.60
2023-05-17T14:53:45.133Z,18.26
2023-05-17T14:58:49.344Z,18.24
2023-05-17T15:03:52.056Z,18.15
2023-05-17T15:08:55.013Z,18.13
2023-05-17T15:13:59.033Z,18.18
2023-05-17T15:19:01.795Z,18.68
2023-05-17T15:24:05.027Z,18.34
2023-05-17T15:29:09.028Z,18.29
2023-05-17T15:34:11.832Z,18.40
2023-05-17T15:39:15.099Z,18.38
2023-05-17T15:44:19.397Z,17.87
2023-05-17T15:49:23.065Z,17.70
2023-05-17T15:54:25.814Z,18.21
2023-05-17T15:59:29.668Z,17.91
2023-05-17T16:04:33.398Z,17.29
2023-05-17T16:09:36.169Z,15.57
2023-05-17T16:14:40.888Z,15.29
2023-05-17T16:19:43.719Z,15.40
2023-05-17T16:24:46.414Z,14.84
2023-05-17T16:29:50.357Z,14.45
2023-05-17T16:34:52.993Z,13.89
2023-05-17T16:39:55.798Z,13.72
2023-05-17T16:44:59.842Z,13.69
2023-05-17T16:50:02.689Z,13.38
2023-05-17T16:55:06.117Z,13.07
2023-05-17T17:00:12.216Z,14.23
2023-05-17T17:05:14.913Z,15.14
2023-05-17T17:10:17.721Z,15.32
2023-05-17T17:15:21.834Z,14.76
2023-05-17T17:20:24.996Z,13.64
2023-05-17T17:25:27.994Z,13.26
2023-05-17T17:30:32.237Z,12.75
2023-05-17T17:35:35.066Z,12.54
2023-05-17T17:40:37.710Z,13.11
2023-05-17T17:45:41.666Z,12.83
2023-05-17T17:50:44.314Z,12.50
2023-05-17T17:55:46.993Z,12.27
2023-05-17T18:00:52.184Z,12.08
2023-05-17T18:05:54.909Z,11.87
2023-05-17T18:10:57.588Z,11.67
2023-05-17T18:16:01.597Z,11.57
2023-05-17T18:21:04.554Z,11.51
2023-05-17T18:26:07.532Z,11.33
2023-05-17T18:31:11.801Z,11.19
2023-05-17T18:36:14.440Z,11.01
2023-05-17T18:41:17.033Z,10.87
2023-05-17T18:46:21.457Z,10.66
2023-05-17T18:51:24.722Z,10.45
2023-05-17T18:56:28.687Z,10.22
2023-05-17T19:01:32.767Z,9.98
2023-05-17T19:06:35.390Z,9.78
2023-05-17T19:11:38.077Z,9.56
2023-05-17T19:16:42.198Z,9.32
2023-05-17T19:21:44.936Z,9.14
2023-05-17T19:26:47.720Z,8.98
2023-05-17T19:31:52.068Z,8.83
2023-05-17T19:36:54.773Z,8.63
2023-05-17T19:41:57.518Z,8.43
2023-05-17T19:47:01.674Z,8.35
2023-05-17T19:52:04.640Z,8.24
2023-05-17T19:57:07.982Z,8.05
2023-05-17T20:02:12.061Z,7.86
2023-05-17T20:07:15.281Z,7.78
2023-05-17T20:12:17.950Z,7.69
2023-05-17T20:17:21.982Z,7.55
2023-05-17T20:22:25.092Z,7.44
2023-05-17T20:27:27.772Z,7.42
2023-05-17T20:32:31.993Z,7.22
2023-05-17T20:37:34.851Z,7.08
2023-05-17T20:42:40.290Z,7.02
2023-05-17T20:47:44.476Z,6.89
2023-05-17T20:52:47.159Z,6.73
2023-05-17T20:57:50.862Z,6.59
2023-05-17T21:02:54.992Z,6.47
2023-05-17T21:07:59.745Z,6.31
2023-05-17T21:13:02.504Z,6.17
2023-05-17T21:18:06.842Z,6.07
2023-05-17T21:23:10.527Z,5.97
2023-05-17T21:28:13.042Z,5.81
2023-05-17T21:33:16.998Z,5.70
2023-05-17T21:38:19.774Z,5.65
2023-05-17T21:43:22.543Z,5.50
2023-05-17T21:48:26.635Z,5.35
2023-05-17T21:53:29.312Z,5.24
2023-05-17T21:58:32.532Z,5.15
2023-05-17T22:03:36.783Z,5.08
2023-05-17T22:08:42.262Z,4.96
2023-05-17T22:13:45.991Z,4.86
2023-05-17T22:18:52.397Z,4.77
2023-05-17T22:23:56.557Z,4.67
2023-05-17T22:28:59.214Z,4.58
2023-05-17T22:34:03.205Z,4.45
2023-05-17T22:39:05.841Z,4.30
2023-05-17T22:44:08.546Z,4.26
2023-05-17T22:49:12.519Z,4.20
2023-05-17T22:54:15.124Z,4.12
2023-05-17T22:59:17.714Z,4.07
2023-05-17T23:04:26.286Z,4.05
2023-05-17T23:09:29.963Z,4.01
2023-05-17T23:14:33.005Z,3.93
2023-05-17T23:19:37.136Z,3.81
2023-05-17T23:24:39.872Z,3.72
2023-05-17T23:29:42.465Z,3.73
2023-05-17T23:34:47.290Z,3.63
2023-05-17T23:39:49.989Z,3.54
2023-05-17T23:44:52.803Z,3.54
2023-05-17T23:49:57.540Z,3.56
2023-05-17T23:55:00.196Z,3.54
